Time;durP1;ratioP1;P1;durP2;ratioP2;P2;SDS_P1;SDS_P2;PMS_P1;PMS_P2;Temp;Humidity;BMP_temperature;BMP_pressure;BME280_temperature;BME280_humidity;BME280_pressure;Samples;Min_cycle;Max_cycle;Signal;HPM_P1;HPM_P2
2023/01/18 00:01:41;;;;;;;2.13;1.93;;;2.80;99.90;;;;;;5089615;28;20242;-70
2023/01/18 00:04:06;;;;;;;2.30;2.10;;;2.80;99.90;;;;;;5091082;28;20222;-71
2023/01/18 00:06:32;;;;;;;2.40;2.20;;;2.80;99.90;;;;;;5067406;28;20219;-71
2023/01/18 00:08:58;;;;;;;5.37;2.30;;;2.80;99.90;;;;;;5086950;28;20247;-70
2023/01/18 00:11:23;;;;;;;2.07;1.97;;;2.80;99.90;;;;;;5078721;28;20271;-70
2023/01/18 00:13:49;;;;;;;2.90;2.37;;;2.70;99.90;;;;;;5109795;28;20259;-71
2023/01/18 00:16:17;;;;;;;2.53;2.00;;;2.70;99.90;;;;;;5110811;28;20225;-71
2023/01/18 00:18:43;;;;;;;2.80;1.93;;;2.70;99.90;;;;;;5081254;28;20281;-70
2023/01/18 00:21:11;;;;;;;2.97;2.67;;;2.70;99.90;;;;;;5107029;28;20456;-71
2023/01/18 00:23:37;;;;;;;8.07;2.90;;;2.60;99.90;;;;;;5073778;28;20453;-71
2023/01/18 00:26:10;;;;;;;3.43;1.97;;;2.60;99.90;;;;;;5089592;28;21040;-71
2023/01/18 00:28:37;;;;;;;3.23;2.30;;;2.60;99.90;;;;;;5083287;28;20489;-71
2023/01/18 00:31:11;;;;;;;4.80;2.43;;;2.50;99.90;;;;;;5087533;28;20546;-71
2023/01/18 00:33:37;;;;;;;3.80;2.30;;;2.60;99.90;;;;;;5096235;28;20460;-71
2023/01/18 00:36:03;;;;;;;3.30;1.60;;;2.60;99.90;;;;;;5086730;28;20556;-71
2023/01/18 00:38:30;;;;;;;5.17;2.40;;;2.50;99.90;;;;;;5074656;28;20230;-70
2023/01/18 00:40:56;;;;;;;2.90;1.90;;;2.50;99.90;;;;;;5059092;28;20461;-70
2023/01/18 00:43:37;;;;;;;2.50;1.67;;;2.40;99.90;;;;;;5077690;28;20461;-70
2023/01/18 00:46:08;;;;;;;2.70;2.03;;;2.50;99.90;;;;;;5059825;28;20459;-71
2023/01/18 00:48:34;;;;;;;2.53;2.30;;;2.40;99.90;;;;;;5077809;28;20453;-69
2023/01/18 00:51:00;;;;;;;3.03;1.90;;;2.50;99.90;;;;;;5078704;28;20904;-70
2023/01/18 00:53:26;;;;;;;4.10;2.20;;;2.50;99.90;;;;;;5080303;28;20218;-68
2023/01/18 00:55:52;;;;;;;4.57;2.10;;;2.50;99.90;;;;;;5081883;28;20227;-70
2023/01/18 00:58:18;;;;;;;2.80;1.70;;;2.50;99.90;;;;;;5079918;28;20223;-71
2023/01/18 01:00:43;;;;;;;2.33;2.00;;;2.40;99.90;;;;;;5067297;28;20238;-70
2023/01/18 01:03:09;;;;;;;1.80;1.70;;;2.40;99.90;;;;;;5063991;28;20453;-71
2023/01/18 01:08:22;;;;;;;2.57;1.83;;;2.50;99.90;;;;;;5084546;28;20236;-71
2023/01/18 01:10:50;;;;;;;2.00;1.83;;;2.50;99.90;;;;;;5104987;28;20509;-71
2023/01/18 01:27:06;;;;;;;2.37;2.17;;;2.60;99.90;;;;;;5073693;28;20463;-71
2023/01/18 01:29:32;;;;;;;2.30;1.90;;;2.50;99.90;;;;;;5088098;28;20460;-71
2023/01/18 01:31:58;;;;;;;3.20;1.77;;;2.50;99.90;;;;;;5089899;28;20226;-71
2023/01/18 01:34:23;;;;;;;2.30;1.93;;;2.50;99.90;;;;;;5100613;28;20214;-70
2023/01/18 01:36:49;;;;;;;5.83;2.47;;;2.50;99.90;;;;;;5077601;28;20230;-71
2023/01/18 01:39:15;;;;;;;4.23;1.47;;;2.50;99.90;;;;;;5090523;28;20229;-71
2023/01/18 01:41:41;;;;;;;2.73;1.83;;;2.60;99.90;;;;;;5105448;28;20536;-70
2023/01/18 01:44:19;;;;;;;1.83;1.23;;;2.50;99.90;;;;;;5106454;28;20222;-70
2023/01/18 01:47:08;;;;;;;2.03;1.87;;;2.50;99.90;;;;;;5088866;28;20602;-70
2023/01/18 01:49:40;;;;;;;2.67;1.80;;;2.50;99.90;;;;;;5080791;28;20457;-71
2023/01/18 01:52:07;;;;;;;3.00;2.00;;;2.40;99.90;;;;;;5071543;28;20494;-71
2023/01/18 01:54:41;;;;;;;3.20;1.67;;;2.40;99.90;;;;;;5097733;28;20445;-71
2023/01/18 01:57:16;;;;;;;2.00;1.67;;;2.30;99.90;;;;;;5084035;28;20469;-71
2023/01/18 01:59:49;;;;;;;2.47;1.87;;;2.30;99.90;;;;;;5075069;28;21054;-71
2023/01/18 02:02:15;;;;;;;2.27;1.83;;;2.30;99.90;;;;;;5055349;28;20446;-71
2023/01/18 02:04:43;;;;;;;2.03;1.90;;;2.30;99.90;;;;;;5086034;28;20475;-69
2023/01/18 02:07:09;;;;;;;2.80;2.33;;;2.30;99.90;;;;;;5100231;28;20222;-71
2023/01/18 02:09:36;;;;;;;1.80;1.50;;;2.30;99.90;;;;;;5088357;28;20502;-68
2023/01/18 02:12:03;;;;;;;3.23;1.90;;;2.30;99.90;;;;;;5090184;28;20525;-70
2023/01/18 02:14:30;;;;;;;2.00;1.53;;;2.30;99.90;;;;;;5081674;28;20531;-68
2023/01/18 02:17:05;;;;;;;2.20;1.57;;;2.20;99.90;;;;;;5071595;28;20475;-71
2023/01/18 02:20:06;;;;;;;4.30;2.17;;;2.40;99.90;;;;;;5089072;28;20455;-70
2023/01/18 02:22:47;;;;;;;2.20;2.00;;;2.40;99.90;;;;;;5059086;28;20468;-70
2023/01/18 02:25:21;;;;;;;2.10;1.90;;;2.40;99.90;;;;;;5084252;28;20457;-71
2023/01/18 02:28:00;;;;;;;2.43;2.17;;;2.40;99.90;;;;;;5077368;28;20969;-70
2023/01/18 02:30:30;;;;;;;1.50;1.40;;;2.30;99.90;;;;;;5070091;28;20987;-70
2023/01/18 02:33:02;;;;;;;2.30;1.73;;;2.40;99.90;;;;;;5093202;28;20540;-71
2023/01/18 02:35:49;;;;;;;1.63;1.53;;;2.40;99.90;;;;;;5085163;28;20906;-71
2023/01/18 02:38:18;;;;;;;1.40;1.20;;;2.40;99.90;;;;;;5095661;28;20553;-70
2023/01/18 02:41:08;;;;;;;1.47;1.37;;;2.40;99.90;;;;;;5069366;28;20625;-70
2023/01/18 02:46:29;;;;;;;4.73;1.73;;;2.40;99.90;;;;;;5062460;28;20514;-71
2023/01/18 02:48:56;;;;;;;2.27;2.07;;;2.40;99.90;;;;;;5073849;28;20453;-70
2023/01/18 02:51:22;;;;;;;3.23;1.87;;;2.40;99.90;;;;;;5079628;28;20509;-71
2023/01/18 02:53:48;;;;;;;5.30;2.10;;;2.40;99.90;;;;;;5086902;28;20448;-71
2023/01/18 02:56:48;;;;;;;2.67;1.57;;;2.40;99.90;;;;;;5081641;28;20235;-71
2023/01/18 02:59:39;;;;;;;1.63;1.50;;;2.30;99.90;;;;;;5077385;28;20230;-71
2023/01/18 03:02:13;;;;;;;3.07;1.53;;;2.30;99.90;;;;;;5083768;28;20465;-71
2023/01/18 03:04:52;;;;;;;1.70;1.60;;;2.30;99.90;;;;;;5067922;28;20478;-70
2023/01/18 03:07:31;;;;;;;4.20;2.40;;;2.30;99.90;;;;;;5071127;28;20449;-70
2023/01/18 03:10:01;;;;;;;3.33;1.73;;;2.30;99.90;;;;;;5071381;28;20457;-71
2023/01/18 03:12:52;;;;;;;1.77;1.43;;;2.30;99.90;;;;;;5073076;28;20544;-70
2023/01/18 03:15:36;;;;;;;1.40;1.30;;;2.30;99.90;;;;;;5063125;28;20465;-71
2023/01/18 03:18:20;;;;;;;6.67;2.40;;;2.30;99.90;;;;;;5049674;28;20603;-71
2023/01/18 03:20:54;;;;;;;2.77;1.40;;;2.30;99.90;;;;;;5091090;28;20444;-70
2023/01/18 03:23:39;;;;;;;1.63;1.50;;;2.30;99.90;;;;;;5065534;28;20466;-71
2023/01/18 03:26:15;;;;;;;1.80;1.70;;;2.30;99.90;;;;;;5073797;28;20471;-71
2023/01/18 03:34:37;;;;;;;1.27;1.17;;;2.30;99.90;;;;;;5107085;27;20449;-71
2023/01/18 03:37:12;;;;;;;2.60;2.07;;;2.30;99.90;;;;;;5074243;28;20992;-70
2023/01/18 03:39:50;;;;;;;4.20;1.47;;;2.30;99.90;;;;;;5065110;28;20465;-70
2023/01/18 03:42:28;;;;;;;1.70;1.60;;;2.40;99.90;;;;;;5068944;28;20842;-71
2023/01/18 03:45:12;;;;;;;2.13;1.30;;;2.40;99.90;;;;;;5099169;28;20454;-70
2023/01/18 03:47:38;;;;;;;2.13;1.50;;;2.40;99.90;;;;;;5086015;28;20462;-70
2023/01/18 03:50:04;;;;;;;1.43;1.27;;;2.40;99.90;;;;;;5075020;28;20480;-71
2023/01/18 03:52:41;;;;;;;1.97;1.70;;;2.40;99.90;;;;;;5087180;28;20482;-70
2023/01/18 03:55:19;;;;;;;1.83;1.50;;;2.40;99.90;;;;;;5057872;28;20529;-70
2023/01/18 03:57:44;;;;;;;2.10;1.80;;;2.30;99.90;;;;;;5095295;28;20485;-71
2023/01/18 04:00:12;;;;;;;2.80;2.10;;;2.30;99.90;;;;;;5095125;28;20455;-71
2023/01/18 04:02:38;;;;;;;1.67;1.57;;;2.40;99.90;;;;;;5067221;28;20215;-71
2023/01/18 04:05:05;;;;;;;3.33;2.07;;;2.40;99.90;;;;;;5063542;28;20480;-71
2023/01/18 04:07:31;;;;;;;2.00;1.60;;;2.40;99.90;;;;;;5061303;28;20284;-70
2023/01/18 04:09:58;;;;;;;1.07;1.00;;;2.40;99.90;;;;;;5079664;28;20453;-71
2023/01/18 04:12:24;;;;;;;1.70;1.33;;;2.40;99.90;;;;;;5077614;28;20459;-71
2023/01/18 04:14:49;;;;;;;1.37;1.27;;;2.40;99.90;;;;;;5077666;28;20449;-70
2023/01/18 04:17:16;;;;;;;1.73;1.37;;;2.40;99.90;;;;;;5087049;28;20464;-71
2023/01/18 04:19:42;;;;;;;2.80;1.37;;;2.30;99.90;;;;;;5090018;28;20269;-70
2023/01/18 04:22:08;;;;;;;1.77;1.37;;;2.30;99.90;;;;;;5072394;28;20517;-70
2023/01/18 04:24:34;;;;;;;3.37;1.97;;;2.30;99.90;;;;;;5089842;28;20453;-70
2023/01/18 04:27:03;;;;;;;1.90;1.60;;;2.30;99.90;;;;;;5088803;28;20478;-70
2023/01/18 04:29:29;;;;;;;2.50;1.80;;;2.30;99.90;;;;;;5078498;28;20214;-70
2023/01/18 04:31:55;;;;;;;1.53;1.43;;;2.40;99.90;;;;;;5116204;27;20852;-70
2023/01/18 04:34:21;;;;;;;1.50;1.40;;;2.40;99.90;;;;;;5108052;28;20529;-71
2023/01/18 04:36:48;;;;;;;2.23;1.23;;;2.40;99.90;;;;;;5090972;28;20511;-70
2023/01/18 04:39:13;;;;;;;2.20;1.50;;;2.40;99.90;;;;;;5090233;28;20450;-71
2023/01/18 04:41:39;;;;;;;2.90;1.70;;;2.40;99.90;;;;;;5089434;28;20459;-70
2023/01/18 04:44:05;;;;;;;3.33;2.07;;;2.40;99.90;;;;;;5090266;28;20246;-71
2023/01/18 04:46:31;;;;;;;2.33;1.50;;;2.30;99.90;;;;;;5089120;28;20222;-70
2023/01/18 04:48:57;;;;;;;2.40;1.30;;;2.40;99.90;;;;;;5090258;28;20529;-70
2023/01/18 04:51:23;;;;;;;1.30;1.20;;;2.40;99.90;;;;;;5107084;28;20520;-70
2023/01/18 04:53:49;;;;;;;4.13;1.80;;;2.40;99.90;;;;;;5091741;28;20215;-69
2023/01/18 04:56:16;;;;;;;4.10;1.83;;;2.30;99.90;;;;;;5093379;28;20324;-71
2023/01/18 04:58:43;;;;;;;1.50;1.07;;;2.40;99.90;;;;;;5108765;28;20523;-70
2023/01/18 05:01:13;;;;;;;2.20;1.13;;;2.30;99.90;;;;;;5107482;28;20511;-71
2023/01/18 05:03:40;;;;;;;1.93;1.67;;;2.30;99.90;;;;;;5089652;28;21087;-69
2023/01/18 05:06:10;;;;;;;1.87;1.40;;;2.40;99.90;;;;;;5083040;28;20448;-70
2023/01/18 05:08:39;;;;;;;1.90;1.40;;;2.30;99.90;;;;;;5076182;28;20520;-71
2023/01/18 05:11:10;;;;;;;2.03;1.47;;;2.30;99.90;;;;;;5088978;28;20460;-70
2023/01/18 05:13:36;;;;;;;1.23;0.90;;;2.30;99.90;;;;;;5103289;28;20508;-70
2023/01/18 05:16:04;;;;;;;1.80;1.30;;;2.30;99.90;;;;;;5087736;28;20503;-69
2023/01/18 05:18:30;;;;;;;1.50;1.20;;;2.30;99.90;;;;;;5089074;28;20502;-71
2023/01/18 05:20:55;;;;;;;2.57;1.90;;;2.40;99.90;;;;;;5089235;28;20448;-70
2023/01/18 05:23:22;;;;;;;2.20;1.70;;;2.40;99.90;;;;;;5090558;28;20465;-70
2023/01/18 05:25:52;;;;;;;1.50;1.40;;;2.40;99.90;;;;;;5090441;28;20226;-71
2023/01/18 05:28:18;;;;;;;1.80;1.40;;;2.40;99.90;;;;;;5089437;28;20956;-70
2023/01/18 05:30:44;;;;;;;1.90;1.33;;;2.40;99.90;;;;;;5082212;28;20549;-70
2023/01/18 05:33:09;;;;;;;2.93;1.70;;;2.40;99.90;;;;;;5089792;28;20634;-70
2023/01/18 05:35:35;;;;;;;1.40;1.10;;;2.40;99.90;;;;;;5105508;27;20246;-70
2023/01/18 05:38:01;;;;;;;5.80;1.73;;;2.30;99.90;;;;;;5081638;28;20252;-70
2023/01/18 05:40:27;;;;;;;0.80;0.73;;;2.30;99.90;;;;;;5088559;28;20279;-69
2023/01/18 05:42:52;;;;;;;1.50;1.40;;;2.30;99.90;;;;;;5103752;28;20210;-70
2023/01/18 05:45:19;;;;;;;2.33;1.80;;;2.30;99.90;;;;;;5088056;28;20207;-70
2023/01/18 05:47:44;;;;;;;1.10;1.00;;;2.20;99.90;;;;;;5090071;28;20219;-69
2023/01/18 05:50:10;;;;;;;1.43;1.20;;;2.20;99.90;;;;;;5101406;28;21036;-70
2023/01/18 05:52:36;;;;;;;1.63;1.17;;;2.30;99.90;;;;;;5090790;28;20296;-71
2023/01/18 05:55:03;;;;;;;1.77;1.63;;;2.20;99.90;;;;;;5104972;28;20287;-70
2023/01/18 05:57:28;;;;;;;1.87;1.70;;;2.20;99.90;;;;;;5082945;28;20494;-70
2023/01/18 05:59:54;;;;;;;3.07;2.00;;;2.20;99.90;;;;;;5083746;28;20468;-70
2023/01/18 06:02:20;;;;;;;1.57;1.47;;;2.20;99.90;;;;;;5083198;28;20695;-70
2023/01/18 06:04:46;;;;;;;2.10;1.90;;;2.10;99.90;;;;;;5051998;28;20219;-70
2023/01/18 06:07:12;;;;;;;2.80;2.03;;;2.10;99.90;;;;;;5065383;28;20222;-68
2023/01/18 06:09:38;;;;;;;3.10;1.67;;;2.10;99.90;;;;;;5068290;28;20460;-68
2023/01/18 06:12:04;;;;;;;2.30;1.93;;;2.00;99.90;;;;;;5089361;28;20465;-70
2023/01/18 06:14:30;;;;;;;1.60;1.50;;;2.10;99.90;;;;;;5068956;28;20560;-68
2023/01/18 06:16:55;;;;;;;3.17;2.57;;;2.10;99.90;;;;;;5086255;28;20246;-70
2023/01/18 06:19:21;;;;;;;4.63;2.30;;;2.20;99.90;;;;;;5081084;28;20321;-68
2023/01/18 06:21:46;;;;;;;2.50;1.47;;;2.20;99.90;;;;;;5068377;28;20257;-70
2023/01/18 06:24:13;;;;;;;2.30;1.90;;;2.20;99.90;;;;;;5063995;28;20224;-70
2023/01/18 06:26:38;;;;;;;3.90;2.10;;;2.20;99.90;;;;;;5074138;28;20239;-70
2023/01/18 06:29:04;;;;;;;2.90;2.10;;;2.20;99.90;;;;;;5057931;28;20987;-70
2023/01/18 06:31:30;;;;;;;3.17;1.87;;;2.10;99.90;;;;;;5039303;28;20215;-70
2023/01/18 06:33:56;;;;;;;5.10;2.50;;;2.10;99.90;;;;;;5074445;28;20234;-70
2023/01/18 06:36:21;;;;;;;5.27;2.37;;;2.10;99.90;;;;;;5087054;28;20256;-70
2023/01/18 06:38:47;;;;;;;2.17;1.97;;;2.20;99.90;;;;;;5080480;28;20281;-70
2023/01/18 06:41:14;;;;;;;3.10;2.63;;;2.20;99.90;;;;;;5071011;28;20223;-70
2023/01/18 06:43:39;;;;;;;3.30;2.50;;;2.10;99.90;;;;;;5109078;28;20306;-70
2023/01/18 06:46:08;;;;;;;2.67;2.00;;;2.00;99.90;;;;;;5113599;27;20471;-70
2023/01/18 06:48:33;;;;;;;4.20;1.90;;;2.10;99.90;;;;;;5096945;28;20223;-70
2023/01/18 06:50:59;;;;;;;2.33;1.80;;;2.10;99.90;;;;;;5102997;28;20513;-70
2023/01/18 06:53:25;;;;;;;4.70;2.50;;;2.00;99.90;;;;;;5092216;28;20240;-71
2023/01/18 06:55:53;;;;;;;2.80;2.20;;;2.00;99.90;;;;;;5039320;28;20248;-69
2023/01/18 06:58:18;;;;;;;5.87;2.50;;;2.00;99.90;;;;;;5071269;28;20861;-70
2023/01/18 07:00:44;;;;;;;3.70;2.40;;;2.10;99.90;;;;;;5087797;28;20463;-70
2023/01/18 07:03:09;;;;;;;2.30;2.00;;;2.00;99.90;;;;;;5091286;28;20210;-70
2023/01/18 07:05:35;;;;;;;4.30;3.27;;;2.00;99.90;;;;;;5080407;28;20211;-70
2023/01/18 07:08:02;;;;;;;3.10;2.30;;;2.00;99.90;;;;;;5076199;28;20315;-70
2023/01/18 07:10:27;;;;;;;6.20;2.53;;;2.00;99.90;;;;;;5084173;28;20207;-70
2023/01/18 07:12:53;;;;;;;2.40;2.00;;;2.00;99.90;;;;;;5072609;28;20515;-70
2023/01/18 07:15:19;;;;;;;2.10;1.90;;;2.00;99.90;;;;;;5099203;28;20222;-71
2023/01/18 07:17:44;;;;;;;3.77;2.70;;;2.00;99.90;;;;;;5058629;28;20258;-70
2023/01/18 07:20:12;;;;;;;4.23;2.80;;;2.00;99.90;;;;;;5080439;28;20339;-70
2023/01/18 07:22:38;;;;;;;2.70;2.10;;;2.00;99.90;;;;;;5085959;28;20309;-71
2023/01/18 07:25:04;;;;;;;2.20;1.73;;;1.90;99.90;;;;;;5081569;28;20591;-70
2023/01/18 07:27:30;;;;;;;2.63;2.20;;;2.00;99.90;;;;;;5088377;28;20211;-70
2023/01/18 07:29:55;;;;;;;3.57;1.90;;;1.90;99.90;;;;;;5090781;28;20784;-70
2023/01/18 07:32:21;;;;;;;3.23;2.70;;;2.00;99.90;;;;;;5071429;28;20230;-70
2023/01/18 07:34:46;;;;;;;9.10;2.83;;;2.00;99.90;;;;;;5073102;28;20218;-70
2023/01/18 07:37:12;;;;;;;6.80;2.93;;;2.10;99.90;;;;;;5085112;28;20249;-70
2023/01/18 07:39:38;;;;;;;2.90;2.53;;;2.10;99.90;;;;;;5086419;28;20264;-68
2023/01/18 07:42:03;;;;;;;6.73;2.40;;;2.10;99.90;;;;;;5102908;28;20285;-70
2023/01/18 07:44:29;;;;;;;3.30;2.77;;;2.10;99.90;;;;;;5086613;28;20343;-70
2023/01/18 07:46:55;;;;;;;4.10;2.57;;;2.00;99.90;;;;;;5090043;28;20210;-69
2023/01/18 07:49:21;;;;;;;7.27;3.20;;;2.10;99.90;;;;;;5075497;28;20226;-70
2023/01/18 07:51:46;;;;;;;3.53;2.57;;;2.10;99.90;;;;;;5072295;28;20309;-70
2023/01/18 07:54:12;;;;;;;2.30;2.10;;;2.20;99.90;;;;;;5086881;28;20227;-70
2023/01/18 07:56:39;;;;;;;3.43;2.40;;;2.20;99.90;;;;;;5056721;28;20276;-70
2023/01/18 07:59:04;;;;;;;2.50;2.10;;;2.20;99.90;;;;;;5082573;28;20238;-71
2023/01/18 08:01:30;;;;;;;4.73;2.20;;;2.10;99.90;;;;;;5073953;28;20449;-70
2023/01/18 08:03:56;;;;;;;3.30;2.60;;;2.20;99.90;;;;;;5083335;28;20717;-70
2023/01/18 08:06:24;;;;;;;6.57;3.63;;;2.10;99.90;;;;;;5075731;28;20229;-70
2023/01/18 08:08:50;;;;;;;6.73;2.43;;;2.10;99.90;;;;;;5077872;28;20675;-70
2023/01/18 08:11:16;;;;;;;3.43;2.73;;;2.00;99.90;;;;;;5063274;28;20456;-70
2023/01/18 08:13:42;;;;;;;6.70;3.40;;;2.10;99.90;;;;;;5071073;28;20475;-69
2023/01/18 08:16:10;;;;;;;6.70;3.47;;;2.10;99.90;;;;;;5079391;28;20564;-70
2023/01/18 08:18:36;;;;;;;4.83;2.67;;;2.10;99.90;;;;;;5066586;28;20216;-70
2023/01/18 08:21:01;;;;;;;2.83;2.57;;;2.20;99.90;;;;;;5086045;28;21025;-70
2023/01/18 08:23:27;;;;;;;4.90;2.50;;;2.10;99.90;;;;;;5088725;28;20301;-70
2023/01/18 08:25:54;;;;;;;3.80;2.90;;;2.10;99.90;;;;;;5086908;28;20448;-71
2023/01/18 08:28:21;;;;;;;4.43;3.60;;;2.20;99.90;;;;;;5083693;28;20229;-70
2023/01/18 08:30:47;;;;;;;4.07;3.07;;;2.10;99.90;;;;;;5073994;28;20994;-70
2023/01/18 08:33:14;;;;;;;4.47;2.70;;;2.10;99.90;;;;;;5096874;28;20459;-71
2023/01/18 08:35:45;;;;;;;3.63;2.90;;;2.10;99.90;;;;;;5078936;28;20455;-70
2023/01/18 08:38:13;;;;;;;5.20;3.17;;;2.00;99.90;;;;;;5088159;28;20880;-70
2023/01/18 08:40:39;;;;;;;4.87;2.80;;;2.10;99.90;;;;;;5080513;28;20883;-71
2023/01/18 08:43:06;;;;;;;6.97;3.23;;;2.00;99.90;;;;;;5082816;28;20448;-71
2023/01/18 08:45:33;;;;;;;4.47;2.83;;;2.10;99.90;;;;;;5082716;28;20446;-71
2023/01/18 08:48:08;;;;;;;4.30;3.40;;;2.10;99.90;;;;;;5061835;28;20534;-70
2023/01/18 08:50:34;;;;;;;3.63;2.97;;;2.10;99.90;;;;;;5047985;28;20510;-71
2023/01/18 08:53:01;;;;;;;6.40;2.90;;;2.20;99.90;;;;;;5074048;28;20485;-70
2023/01/18 08:55:28;;;;;;;3.63;3.30;;;2.10;99.90;;;;;;5079886;28;20674;-71
2023/01/18 08:57:56;;;;;;;4.97;3.17;;;2.20;99.90;;;;;;5079479;28;20483;-71
2023/01/18 09:00:22;;;;;;;3.03;2.60;;;2.10;99.90;;;;;;5086946;28;20544;-71
2023/01/18 09:02:48;;;;;;;6.30;3.33;;;2.10;99.90;;;;;;5051057;28;20453;-71
2023/01/18 09:05:14;;;;;;;3.97;3.50;;;2.20;99.90;;;;;;5077478;28;20464;-70
2023/01/18 09:07:40;;;;;;;4.03;3.27;;;2.10;99.90;;;;;;5046891;28;20456;-70
2023/01/18 09:10:07;;;;;;;7.07;4.20;;;2.20;99.90;;;;;;5079349;28;20223;-70
2023/01/18 09:12:34;;;;;;;4.17;3.10;;;2.20;99.90;;;;;;5061746;28;20473;-70
2023/01/18 09:15:00;;;;;;;7.00;3.57;;;2.20;99.90;;;;;;5085583;28;20498;-70
2023/01/18 09:17:26;;;;;;;4.60;3.60;;;2.20;99.90;;;;;;5076155;28;20472;-70
2023/01/18 09:19:53;;;;;;;6.53;4.13;;;2.30;99.90;;;;;;5060676;28;20558;-70
2023/01/18 09:22:19;;;;;;;11.83;4.17;;;2.30;99.90;;;;;;5067283;28;20226;-70
2023/01/18 09:24:45;;;;;;;11.30;10.20;;;2.20;99.90;;;;;;5087426;28;20991;-70
2023/01/18 09:27:10;;;;;;;11.73;8.13;;;2.20;99.90;;;;;;5087565;28;20456;-70
2023/01/18 09:29:36;;;;;;;8.93;5.70;;;2.30;99.90;;;;;;5094844;28;20306;-70
2023/01/18 09:32:02;;;;;;;6.67;3.97;;;2.30;99.90;;;;;;5091289;28;20211;-70
2023/01/18 09:34:27;;;;;;;4.60;3.57;;;2.30;99.90;;;;;;5092615;28;20218;-71
2023/01/18 09:36:53;;;;;;;6.13;3.63;;;2.30;99.90;;;;;;5089283;28;20268;-70
2023/01/18 09:39:21;;;;;;;7.27;4.10;;;2.40;99.90;;;;;;5095155;28;20717;-70
2023/01/18 09:42:15;;;;;;;4.27;3.23;;;2.40;99.90;;;;;;5088631;28;20305;-70
2023/01/18 09:44:44;;;;;;;3.97;3.37;;;2.40;99.90;;;;;;5070300;28;21053;-69
2023/01/18 09:47:16;;;;;;;5.80;3.57;;;2.40;99.90;;;;;;5063096;28;20457;-70
2023/01/18 09:49:50;;;;;;;4.83;3.43;;;2.40;99.90;;;;;;5068507;28;20494;-70
2023/01/18 09:52:31;;;;;;;8.00;4.03;;;2.40;99.90;;;;;;5065171;28;20497;-70
2023/01/18 09:55:18;;;;;;;12.97;5.80;;;2.40;99.90;;;;;;5065091;28;20455;-70
2023/01/18 09:58:02;;;;;;;7.23;4.07;;;2.50;99.90;;;;;;5085903;28;20456;-70
2023/01/18 10:00:32;;;;;;;8.80;3.90;;;2.50;99.90;;;;;;5070188;28;20827;-70
2023/01/18 10:03:02;;;;;;;5.17;3.50;;;2.40;99.90;;;;;;5072632;28;20457;-71
2023/01/18 10:05:33;;;;;;;4.80;3.23;;;2.50;99.90;;;;;;5056365;28;20457;-70
2023/01/18 10:08:13;;;;;;;5.60;3.77;;;2.50;99.90;;;;;;5093146;28;20495;-70
2023/01/18 10:11:09;;;;;;;5.90;4.00;;;2.60;99.90;;;;;;5090165;28;20459;-70
2023/01/18 10:13:43;;;;;;;5.77;4.20;;;2.60;99.90;;;;;;5089375;28;20475;-70
2023/01/18 10:16:13;;;;;;;5.67;3.30;;;2.70;99.90;;;;;;5090167;28;21053;-71
2023/01/18 10:18:47;;;;;;;5.60;3.70;;;2.60;99.90;;;;;;5097392;28;20461;-70
2023/01/18 10:21:42;;;;;;;8.07;4.07;;;2.70;99.90;;;;;;5089842;28;20563;-70
2023/01/18 10:24:20;;;;;;;8.00;3.87;;;2.60;99.90;;;;;;5059317;28;20448;-71
2023/01/18 10:26:49;;;;;;;4.00;3.10;;;2.70;99.90;;;;;;5078095;28;20976;-70
2023/01/18 10:29:15;;;;;;;5.97;3.93;;;2.70;99.90;;;;;;5086562;28;20499;-70
2023/01/18 10:31:56;;;;;;;6.43;4.33;;;2.80;99.90;;;;;;5084435;28;20457;-70
2023/01/18 10:34:26;;;;;;;7.37;4.77;;;2.80;99.90;;;;;;5099113;27;20662;-71
2023/01/18 10:37:00;;;;;;;5.33;4.30;;;2.70;99.90;;;;;;5090027;28;20476;-70
2023/01/18 10:39:34;;;;;;;8.00;4.77;;;2.70;99.90;;;;;;5094082;28;20463;-71
2023/01/18 10:42:02;;;;;;;9.13;4.53;;;2.70;99.90;;;;;;5081085;28;20452;-71
2023/01/18 10:44:28;;;;;;;6.00;4.67;;;2.70;99.90;;;;;;5078178;28;20456;-70
2023/01/18 10:46:56;;;;;;;10.77;4.33;;;2.70;99.90;;;;;;5072156;28;20466;-70
2023/01/18 10:49:34;;;;;;;10.07;5.27;;;2.70;99.90;;;;;;5093973;28;20460;-70
2023/01/18 10:52:15;;;;;;;10.37;4.57;;;2.70;99.90;;;;;;5076907;28;20989;-71
2023/01/18 10:54:48;;;;;;;6.30;4.23;;;2.70;99.90;;;;;;5088506;28;20502;-70
2023/01/18 10:57:21;;;;;;;7.77;4.53;;;2.70;99.90;;;;;;5074842;28;20508;-71
2023/01/18 10:59:51;;;;;;;5.47;4.93;;;2.80;99.90;;;;;;5078195;28;20547;-71
2023/01/18 11:02:31;;;;;;;8.13;5.00;;;2.90;99.90;;;;;;5082657;28;20983;-70
2023/01/18 11:05:01;;;;;;;8.73;5.83;;;2.80;99.90;;;;;;5088345;28;20444;-71
2023/01/18 11:07:28;;;;;;;7.53;5.00;;;2.80;99.90;;;;;;5072732;28;20442;-71
2023/01/18 11:09:58;;;;;;;8.90;5.27;;;2.80;99.90;;;;;;5075524;28;20552;-70
2023/01/18 11:12:37;;;;;;;14.93;6.40;;;2.90;99.90;;;;;;5090502;28;20502;-70
2023/01/18 11:15:15;;;;;;;11.37;6.57;;;2.90;99.90;;;;;;5103145;28;20596;-70
2023/01/18 11:17:53;;;;;;;11.10;6.40;;;2.90;99.90;;;;;;5077660;28;20461;-70
2023/01/18 11:20:49;;;;;;;9.37;6.37;;;2.90;99.90;;;;;;5073309;28;20477;-70
2023/01/18 11:23:24;;;;;;;6.70;4.47;;;3.00;99.90;;;;;;5058239;28;20464;-69
2023/01/18 11:25:54;;;;;;;10.63;6.23;;;2.90;99.90;;;;;;5090411;28;20452;-71
2023/01/18 11:28:27;;;;;;;15.70;6.63;;;3.00;99.90;;;;;;5100336;28;20447;-70
2023/01/18 11:30:53;;;;;;;9.77;6.50;;;3.10;99.90;;;;;;5090618;28;20499;-71
2023/01/18 11:33:20;;;;;;;11.97;6.60;;;3.20;99.90;;;;;;5090164;28;20441;-71
2023/01/18 11:35:55;;;;;;;12.90;6.50;;;3.20;99.90;;;;;;5092871;28;20226;-71
2023/01/18 11:38:30;;;;;;;7.23;5.40;;;3.00;99.90;;;;;;5074578;28;20453;-71
2023/01/18 11:41:24;;;;;;;12.50;6.20;;;3.00;99.90;;;;;;5088366;28;20546;-71
2023/01/18 11:44:03;;;;;;;7.60;6.40;;;3.10;99.90;;;;;;5104308;28;20449;-71
2023/01/18 11:46:52;;;;;;;8.57;5.97;;;3.20;99.90;;;;;;5080772;28;20445;-71
2023/01/18 11:50:02;;;;;;;14.60;6.07;;;3.20;99.90;;;;;;5083442;28;20464;-71
2023/01/18 11:52:52;;;;;;;12.27;6.63;;;3.20;99.90;;;;;;5084618;28;20464;-71
2023/01/18 11:55:34;;;;;;;8.60;6.37;;;3.40;99.90;;;;;;5104788;28;20524;-71
2023/01/18 11:57:59;;;;;;;16.93;6.67;;;3.40;99.90;;;;;;5091782;28;20559;-71
2023/01/18 12:00:32;;;;;;;11.87;5.83;;;3.40;99.90;;;;;;5089126;28;20559;-71
2023/01/18 12:03:43;;;;;;;9.80;6.07;;;3.50;99.90;;;;;;5084666;28;20235;-71
2023/01/18 12:06:24;;;;;;;7.97;5.90;;;3.60;99.90;;;;;;5070197;28;20453;-70
2023/01/18 12:09:23;;;;;;;15.30;6.63;;;3.60;99.90;;;;;;5096201;28;20488;-71
2023/01/18 12:12:07;;;;;;;14.73;6.90;;;3.60;99.90;;;;;;5092731;28;20471;-71
2023/01/18 12:14:54;;;;;;;10.80;5.33;;;3.60;99.90;;;;;;5069219;28;20485;-70
2023/01/18 12:17:44;;;;;;;14.37;5.90;;;3.50;99.90;;;;;;5089531;28;20476;-70
2023/01/18 12:20:18;;;;;;;10.50;6.60;;;3.60;99.90;;;;;;5081408;28;20458;-71
2023/01/18 12:22:49;;;;;;;9.33;5.20;;;3.50;99.90;;;;;;5095242;28;20455;-71
2023/01/18 12:25:24;;;;;;;12.60;5.23;;;3.70;99.90;;;;;;5086389;28;20453;-71
2023/01/18 12:28:08;;;;;;;9.30;4.57;;;3.70;99.90;;;;;;5088131;28;20482;-71
2023/01/18 12:30:48;;;;;;;11.73;5.70;;;3.70;99.90;;;;;;5071818;28;20527;-70
2023/01/18 12:33:34;;;;;;;6.30;4.90;;;3.60;99.90;;;;;;5089535;28;20453;-71
2023/01/18 12:36:12;;;;;;;12.20;6.13;;;3.70;99.90;;;;;;5081698;28;20544;-71
2023/01/18 12:38:50;;;;;;;11.00;4.90;;;3.60;99.90;;;;;;5084399;28;20502;-69
2023/01/18 12:41:47;;;;;;;8.43;4.80;;;3.60;99.90;;;;;;5078494;28;20454;-71
2023/01/18 12:44:50;;;;;;;8.17;4.67;;;3.70;99.90;;;;;;5086974;28;20824;-71
2023/01/18 12:47:36;;;;;;;6.43;4.70;;;3.80;99.90;;;;;;5090846;28;20562;-71
2023/01/18 12:50:26;;;;;;;6.77;3.83;;;3.70;99.90;;;;;;5086502;28;20444;-71
2023/01/18 12:52:58;;;;;;;5.67;3.53;;;3.70;99.90;;;;;;5083607;28;20485;-71
2023/01/18 12:55:28;;;;;;;7.43;5.03;;;3.70;99.90;;;;;;5087715;28;20449;-71
2023/01/18 12:57:57;;;;;;;10.40;5.03;;;3.70;99.90;;;;;;5089200;28;20452;-70
2023/01/18 13:00:47;;;;;;;6.27;4.53;;;3.70;99.90;;;;;;5085757;28;20480;-71
2023/01/18 13:03:17;;;;;;;9.07;5.23;;;3.70;99.90;;;;;;5090094;28;20444;-70
2023/01/18 13:05:59;;;;;;;11.67;6.17;;;3.70;99.90;;;;;;5087634;28;20952;-70
2023/01/18 13:08:41;;;;;;;10.27;4.73;;;3.70;99.90;;;;;;5095655;28;20493;-71
2023/01/18 13:11:19;;;;;;;10.10;6.00;;;3.70;99.90;;;;;;5077996;28;20829;-70
2023/01/18 13:13:48;;;;;;;10.53;4.90;;;3.60;99.90;;;;;;5070341;28;20459;-70
2023/01/18 13:16:38;;;;;;;8.70;5.47;;;3.50;99.90;;;;;;5088322;28;20480;-71
2023/01/18 13:19:20;;;;;;;8.83;4.93;;;3.40;99.90;;;;;;5087495;28;20444;-71
2023/01/18 13:21:51;;;;;;;8.47;4.17;;;3.30;99.90;;;;;;5075534;28;20516;-71
2023/01/18 13:24:55;;;;;;;9.00;4.63;;;3.40;99.90;;;;;;5072772;28;20517;-71
2023/01/18 13:27:21;;;;;;;6.03;3.70;;;3.40;99.90;;;;;;5073509;28;20495;-71
2023/01/18 13:29:47;;;;;;;10.43;5.70;;;3.40;99.90;;;;;;5063188;28;20864;-71
2023/01/18 13:32:22;;;;;;;8.40;5.10;;;3.50;99.90;;;;;;5073957;28;20211;-71
2023/01/18 13:35:16;;;;;;;6.77;4.50;;;3.60;99.90;;;;;;5058419;28;20207;-71
2023/01/18 13:37:47;;;;;;;9.23;5.20;;;3.60;99.90;;;;;;5066413;28;20473;-71
2023/01/18 13:40:26;;;;;;;14.00;4.50;;;3.60;99.90;;;;;;5060116;28;20453;-71
2023/01/18 13:42:52;;;;;;;6.77;4.40;;;3.50;99.90;;;;;;5068821;28;20472;-72